Time;durP1;ratioP1;P1;durP2;ratioP2;P2;SDS_P1;SDS_P2;PMS_P1;PMS_P2;Temp;Humidity;BMP_temperature;BMP_pressure;BME280_temperature;BME280_humidity;BME280_pressure;Samples;Min_cycle;Max_cycle;Signal;HPM_P1;HPM_P2
2021/12/14 00:02:00;;;;;;;15.45;10.85;;;8.80;99.90;;;;;;5115269;28;20044;-59
2021/12/14 00:04:32;;;;;;;19.15;10.75;;;8.80;99.90;;;;;;5114150;28;20047;-58
2021/12/14 00:07:00;;;;;;;18.70;11.20;;;8.90;99.90;;;;;;5113761;28;20481;-58
2021/12/14 00:09:31;;;;;;;14.80;11.00;;;8.80;99.90;;;;;;5114791;28;20055;-58
2021/12/14 00:12:30;;;;;;;17.60;11.45;;;8.80;99.90;;;;;;5115280;28;20058;-59
2021/12/14 00:15:06;;;;;;;16.92;11.60;;;8.80;99.90;;;;;;5114944;28;20071;-58
2021/12/14 00:17:43;;;;;;;17.85;11.68;;;8.80;99.90;;;;;;5115227;28;20383;-57
2021/12/14 00:20:35;;;;;;;17.85;10.82;;;8.80;99.90;;;;;;5115392;28;20497;-58
2021/12/14 00:25:47;;;;;;;16.33;11.00;;;8.80;99.90;;;;;;5115012;28;20051;-58
2021/12/14 00:28:18;;;;;;;17.08;11.57;;;8.80;99.90;;;;;;5114928;28;20040;-58
2021/12/14 00:30:47;;;;;;;20.33;11.50;;;8.80;99.90;;;;;;5113619;28;20040;-58
2021/12/14 00:33:16;;;;;;;16.90;11.07;;;8.70;99.90;;;;;;5113589;28;20469;-58
2021/12/14 00:35:43;;;;;;;18.25;11.55;;;8.70;99.90;;;;;;5114238;28;20047;-58
2021/12/14 00:38:11;;;;;;;17.73;11.27;;;8.80;99.90;;;;;;5113720;28;20087;-58
2021/12/14 00:40:41;;;;;;;17.52;11.27;;;8.70;99.90;;;;;;5114525;27;20096;-61
2021/12/14 00:43:08;;;;;;;18.65;11.40;;;8.70;99.90;;;;;;5114418;28;20493;-58
2021/12/14 00:45:37;;;;;;;15.80;11.02;;;8.80;99.90;;;;;;5114625;28;20511;-58
2021/12/14 00:48:04;;;;;;;17.08;10.82;;;8.70;99.90;;;;;;5130547;27;20047;-58
2021/12/14 00:50:32;;;;;;;17.40;11.15;;;8.80;99.90;;;;;;5114632;28;20074;-58
2021/12/14 00:52:59;;;;;;;15.15;11.02;;;8.80;99.90;;;;;;5114048;28;20503;-58
2021/12/14 00:55:31;;;;;;;17.30;10.25;;;8.70;99.90;;;;;;5113345;28;20051;-58
2021/12/14 00:57:57;;;;;;;14.85;10.50;;;8.70;99.90;;;;;;5112661;28;20079;-58
2021/12/14 01:00:28;;;;;;;15.15;10.35;;;8.70;99.90;;;;;;5114515;28;20048;-58
2021/12/14 01:02:55;;;;;;;15.57;11.05;;;8.70;99.90;;;;;;5114126;28;20126;-58
2021/12/14 01:05:28;;;;;;;16.30;10.52;;;8.80;99.90;;;;;;5114205;28;20435;-56
2021/12/14 01:07:54;;;;;;;14.53;9.90;;;8.70;99.90;;;;;;5112860;28;20112;-57
2021/12/14 01:10:46;;;;;;;14.95;10.23;;;8.80;99.90;;;;;;5113113;28;20134;-58
2021/12/14 01:13:13;;;;;;;15.27;10.90;;;8.80;99.90;;;;;;5114255;28;20047;-58
2021/12/14 01:18:46;;;;;;;14.63;11.15;;;8.80;99.90;;;;;;5113763;28;20489;-57
2021/12/14 01:24:03;;;;;;;19.33;11.18;;;8.70;99.90;;;;;;5112695;28;20192;-58
2021/12/14 01:26:31;;;;;;;15.95;10.60;;;8.80;99.90;;;;;;5113873;28;20045;-58
2021/12/14 01:28:59;;;;;;;14.85;10.02;;;8.70;99.90;;;;;;5113510;28;20126;-58
2021/12/14 01:31:34;;;;;;;16.33;11.25;;;8.70;99.90;;;;;;5113361;28;20587;-56
2021/12/14 01:34:02;;;;;;;;;;;8.70;99.90;;;;;;5114040;28;20067;-56
2021/12/14 01:41:49;;;;;;;20.00;11.60;;;8.70;99.90;;;;;;5112351;28;20087;-60
2021/12/14 01:44:15;;;;;;;17.77;11.30;;;8.70;99.90;;;;;;5112500;28;20103;-58
2021/12/14 01:46:45;;;;;;;16.08;11.25;;;8.70;99.90;;;;;;5112912;28;20047;-57
2021/12/14 01:49:13;;;;;;;16.33;11.52;;;8.70;99.90;;;;;;5113417;28;20054;-58
2021/12/14 01:51:42;;;;;;;16.13;11.20;;;8.70;99.90;;;;;;5113167;28;20100;-57
2021/12/14 01:54:10;;;;;;;16.15;11.45;;;8.70;99.90;;;;;;5094783;28;20109;-57
2021/12/14 01:56:38;;;;;;;16.77;11.63;;;8.70;99.90;;;;;;5112753;28;20459;-57
2021/12/14 01:59:11;;;;;;;17.88;12.32;;;8.70;99.90;;;;;;5112547;28;20381;-58
2021/12/14 02:01:46;;;;;;;17.20;11.75;;;8.70;99.90;;;;;;5112845;28;20561;-58
2021/12/14 02:04:19;;;;;;;17.83;10.82;;;8.70;99.90;;;;;;5113288;28;20096;-57
2021/12/14 02:06:57;;;;;;;15.82;11.98;;;8.70;99.90;;;;;;5113014;28;20046;-57
2021/12/14 02:09:27;;;;;;;17.42;12.63;;;8.70;99.90;;;;;;5111493;28;20051;-58
2021/12/14 02:11:56;;;;;;;19.33;12.43;;;8.70;99.90;;;;;;5112627;28;20047;-60
2021/12/14 02:14:23;;;;;;;16.73;12.00;;;8.60;99.90;;;;;;5112938;28;20400;-57
2021/12/14 02:16:53;;;;;;;22.33;13.38;;;8.60;99.90;;;;;;5112694;28;20118;-58
2021/12/14 02:19:19;;;;;;;19.35;13.55;;;8.60;99.90;;;;;;5112745;28;20545;-58
2021/12/14 02:21:47;;;;;;;19.58;13.55;;;8.60;99.90;;;;;;5111780;28;20134;-58
2021/12/14 02:24:19;;;;;;;22.60;13.35;;;8.60;99.90;;;;;;5112466;28;20088;-58
2021/12/14 02:26:47;;;;;;;20.38;13.23;;;8.70;99.90;;;;;;5112810;28;20126;-58
2021/12/14 02:29:36;;;;;;;19.10;13.63;;;8.60;99.90;;;;;;5112327;28;20480;-58
2021/12/14 02:32:05;;;;;;;23.92;14.70;;;8.60;99.90;;;;;;5112310;28;20100;-58
2021/12/14 02:34:36;;;;;;;21.88;14.93;;;8.60;99.90;;;;;;5112697;28;20210;-58
2021/12/14 02:37:02;;;;;;;20.30;14.15;;;8.60;99.90;;;;;;5111321;28;20283;-58
2021/12/14 02:42:22;;;;;;;22.27;14.32;;;8.60;99.90;;;;;;5112083;28;20138;-58
2021/12/14 02:44:52;;;;;;;22.58;15.05;;;8.60;99.90;;;;;;5112469;28;20396;-58
2021/12/14 02:47:20;;;;;;;25.58;16.13;;;8.50;99.90;;;;;;5112489;28;20035;-56
2021/12/14 02:49:48;;;;;;;19.10;14.60;;;8.40;99.90;;;;;;5111294;28;20096;-58
2021/12/14 02:52:24;;;;;;;21.40;14.82;;;8.50;99.90;;;;;;5111964;28;20452;-58
2021/12/14 02:54:54;;;;;;;21.75;14.88;;;8.40;99.90;;;;;;5112413;28;20122;-58
2021/12/14 02:57:26;;;;;;;21.88;15.93;;;8.50;99.90;;;;;;5110513;28;20055;-58
2021/12/14 02:59:55;;;;;;;22.50;16.25;;;8.50;99.90;;;;;;5111210;28;20051;-58
2021/12/14 03:02:30;;;;;;;21.67;14.98;;;8.40;99.90;;;;;;5112248;28;20100;-58
2021/12/14 03:05:09;;;;;;;24.10;16.63;;;8.40;99.90;;;;;;5110881;28;20047;-60
2021/12/14 03:07:43;;;;;;;26.58;17.35;;;8.40;99.90;;;;;;5112211;28;20044;-58
2021/12/14 03:12:46;;;;;;;28.67;17.23;;;8.40;99.90;;;;;;5112296;28;20055;-58
2021/12/14 03:15:47;;;;;;;25.40;14.95;;;8.40;99.90;;;;;;5111731;28;20281;-58
2021/12/14 03:18:18;;;;;;;24.65;16.10;;;8.40;99.90;;;;;;5111738;28;20101;-58
2021/12/14 03:20:55;;;;;;;26.00;17.08;;;8.40;99.90;;;;;;5110682;28;20134;-58
2021/12/14 03:23:27;;;;;;;26.75;16.40;;;8.40;99.90;;;;;;5111847;28;20400;-58
2021/12/14 03:25:56;;;;;;;24.13;16.23;;;8.40;99.90;;;;;;5110473;28;20481;-58
2021/12/14 03:28:24;;;;;;;22.00;15.70;;;8.40;99.90;;;;;;5111624;28;20054;-56
2021/12/14 03:31:11;;;;;;;25.35;16.48;;;8.40;99.90;;;;;;5128099;28;20055;-58
2021/12/14 03:33:48;;;;;;;23.90;15.82;;;8.40;99.90;;;;;;5111098;28;20048;-58
2021/12/14 03:36:23;;;;;;;24.15;16.23;;;8.40;99.90;;;;;;5109171;28;20070;-58
2021/12/14 03:39:07;;;;;;;27.95;17.50;;;8.40;99.90;;;;;;5110664;28;20046;-58
2021/12/14 03:41:44;;;;;;;25.48;17.10;;;8.40;99.90;;;;;;5111029;28;20059;-58
2021/12/14 03:44:14;;;;;;;24.00;16.05;;;8.40;99.90;;;;;;5111610;28;20400;-58
2021/12/14 03:47:01;;;;;;;25.92;16.08;;;8.40;99.90;;;;;;5111928;28;20059;-58
2021/12/14 03:49:35;;;;;;;23.13;17.48;;;8.40;99.90;;;;;;5111268;28;20044;-57
2021/12/14 03:52:03;;;;;;;26.90;18.05;;;8.40;99.90;;;;;;5111967;28;20051;-58
2021/12/14 03:54:29;;;;;;;26.17;18.55;;;8.40;99.90;;;;;;5111599;28;20489;-58
2021/12/14 03:56:56;;;;;;;25.38;16.27;;;8.40;99.90;;;;;;5111756;28;20051;-58
2021/12/14 03:59:26;;;;;;;28.67;18.15;;;8.30;99.90;;;;;;5111423;28;20397;-58
2021/12/14 04:01:52;;;;;;;26.60;17.92;;;8.40;99.90;;;;;;5111788;28;20445;-58
2021/12/14 04:04:26;;;;;;;28.63;18.42;;;8.40;99.90;;;;;;5111351;28;20430;-58
2021/12/14 04:06:56;;;;;;;29.38;18.48;;;8.40;99.90;;;;;;5111713;28;20435;-57
2021/12/14 04:09:25;;;;;;;29.67;19.17;;;8.40;99.90;;;;;;5111998;28;20055;-58
2021/12/14 04:11:51;;;;;;;26.02;16.85;;;8.40;99.90;;;;;;5131213;27;20047;-57
2021/12/14 04:14:17;;;;;;;24.45;17.85;;;8.40;99.90;;;;;;5114942;28;20043;-57
2021/12/14 04:16:47;;;;;;;25.70;17.88;;;8.40;99.90;;;;;;5115370;28;20286;-58
2021/12/14 04:19:21;;;;;;;27.00;18.63;;;8.40;99.90;;;;;;5113915;28;20079;-58
2021/12/14 04:21:47;;;;;;;26.13;16.48;;;8.40;99.90;;;;;;5115145;28;20434;-58
2021/12/14 04:24:17;;;;;;;28.17;18.40;;;8.40;99.90;;;;;;5114700;27;20051;-58
2021/12/14 04:26:45;;;;;;;26.48;18.88;;;8.40;99.90;;;;;;5113526;28;20100;-57
2021/12/14 04:29:13;;;;;;;28.17;18.60;;;8.40;99.90;;;;;;5114555;28;20051;-60
2021/12/14 04:31:42;;;;;;;28.77;18.70;;;8.40;99.90;;;;;;5114906;28;20047;-58
2021/12/14 04:34:08;;;;;;;30.67;18.88;;;8.40;99.90;;;;;;5113691;28;20505;-58
2021/12/14 04:36:35;;;;;;;30.00;19.85;;;8.40;99.90;;;;;;5114825;27;20070;-58
2021/12/14 04:53:22;;;;;;;29.65;19.85;;;8.30;99.90;;;;;;5113819;28;20111;-59
2021/12/14 04:55:50;;;;;;;34.65;21.05;;;8.30;99.90;;;;;;5114482;28;20051;-59
2021/12/14 04:58:27;;;;;;;30.50;19.05;;;8.30;99.90;;;;;;5112412;28;20119;-60
2021/12/14 05:00:53;;;;;;;30.05;20.15;;;8.30;99.90;;;;;;5114188;28;20051;-60
2021/12/14 05:03:26;;;;;;;31.63;20.42;;;8.30;99.90;;;;;;5114155;28;20044;-60
2021/12/14 05:06:10;;;;;;;32.90;21.60;;;8.30;99.90;;;;;;5114221;28;20035;-58
2021/12/14 05:11:08;;;;;;;34.15;21.42;;;8.30;99.90;;;;;;5114113;28;20052;-58
2021/12/14 05:13:51;;;;;;;31.83;20.88;;;8.20;99.90;;;;;;5113038;28;20405;-58
2021/12/14 05:16:22;;;;;;;33.58;21.98;;;8.20;99.90;;;;;;5113865;28;20046;-58
2021/12/14 05:18:51;;;;;;;29.38;19.67;;;8.20;99.90;;;;;;5113062;28;20056;-58
2021/12/14 05:21:23;;;;;;;32.20;20.95;;;8.30;99.90;;;;;;5112614;27;20043;-57
2021/12/14 05:23:49;;;;;;;32.40;20.38;;;8.20;99.90;;;;;;5113945;28;20053;-57
2021/12/14 05:26:15;;;;;;;29.95;20.65;;;8.20;99.90;;;;;;5112360;28;20044;-58
2021/12/14 05:28:43;;;;;;;34.65;21.63;;;8.30;99.90;;;;;;5113910;28;20086;-59
2021/12/14 05:31:09;;;;;;;33.15;21.10;;;8.20;99.90;;;;;;5113762;28;20036;-59
2021/12/14 05:33:37;;;;;;;31.20;20.08;;;8.20;99.90;;;;;;5113556;28;20048;-59
2021/12/14 05:36:14;;;;;;;34.22;21.85;;;8.30;99.90;;;;;;5112631;28;20071;-59
2021/12/14 05:38:56;;;;;;;34.20;21.00;;;8.20;99.90;;;;;;5113760;28;20086;-59
2021/12/14 05:44:20;;;;;;;33.03;21.10;;;8.20;99.90;;;;;;5113684;28;20091;-58
2021/12/14 05:46:50;;;;;;;33.55;21.40;;;8.20;99.90;;;;;;5113541;28;20047;-59
2021/12/14 05:49:27;;;;;;;34.80;22.33;;;8.20;99.90;;;;;;5111940;28;20130;-59
2021/12/14 05:51:55;;;;;;;34.38;21.02;;;8.20;99.90;;;;;;5113570;28;20047;-60
2021/12/14 05:54:23;;;;;;;40.47;22.38;;;8.20;99.90;;;;;;5112220;28;20493;-59
2021/12/14 05:56:50;;;;;;;34.10;20.77;;;8.20;99.90;;;;;;5113351;28;20405;-59
2021/12/14 05:59:19;;;;;;;32.00;20.67;;;8.20;99.90;;;;;;5129206;27;20085;-59
2021/12/14 06:01:45;;;;;;;31.55;19.75;;;8.20;99.90;;;;;;5113132;28;20051;-60
2021/12/14 06:04:11;;;;;;;32.30;20.77;;;8.20;99.90;;;;;;5113151;28;20044;-59
2021/12/14 06:06:41;;;;;;;39.50;23.63;;;8.20;99.90;;;;;;5112680;28;20484;-60
2021/12/14 06:09:13;;;;;;;36.83;23.33;;;8.20;99.90;;;;;;5128441;27;20062;-59
2021/12/14 06:11:42;;;;;;;36.28;22.33;;;8.20;99.90;;;;;;5112383;28;20043;-58
2021/12/14 06:14:20;;;;;;;39.92;22.02;;;8.20;99.90;;;;;;5112955;28;20130;-58
2021/12/14 06:16:48;;;;;;;34.95;21.33;;;8.20;99.90;;;;;;5112887;27;20047;-59
2021/12/14 06:19:38;;;;;;;32.25;20.10;;;8.20;99.90;;;;;;5112852;28;20126;-58
2021/12/14 06:22:16;;;;;;;31.85;22.60;;;8.20;99.90;;;;;;5112858;28;20126;-61
2021/12/14 06:24:46;;;;;;;35.05;22.33;;;8.20;99.90;;;;;;5112116;28;20046;-58
2021/12/14 06:27:18;;;;;;;29.45;19.98;;;8.20;99.90;;;;;;5112680;28;20039;-58
2021/12/14 06:29:49;;;;;;;34.10;21.77;;;8.20;99.90;;;;;;5111376;28;20047;-57
2021/12/14 06:32:31;;;;;;;35.42;22.13;;;8.20;99.90;;;;;;5112313;28;20048;-57
2021/12/14 06:35:06;;;;;;;35.17;24.20;;;8.20;99.90;;;;;;5112463;28;20066;-58
2021/12/14 06:41:12;;;;;;;34.25;23.58;;;8.20;99.90;;;;;;5103231;28;20047;-57
2021/12/14 06:43:58;;;;;;;31.30;21.88;;;8.20;99.90;;;;;;5098397;28;20150;-58
2021/12/14 06:46:27;;;;;;;36.20;22.23;;;8.20;99.90;;;;;;5111964;28;20054;-57
2021/12/14 06:49:04;;;;;;;34.30;22.17;;;8.20;99.90;;;;;;5112267;28;20051;-60
2021/12/14 06:51:44;;;;;;;38.88;22.88;;;8.20;99.90;;;;;;5111972;28;20481;-58
2021/12/14 06:54:14;;;;;;;34.92;22.80;;;8.20;99.90;;;;;;5112489;28;20051;-58
2021/12/14 06:56:40;;;;;;;40.33;23.23;;;8.20;99.90;;;;;;5112073;28;20048;-58
2021/12/14 06:59:16;;;;;;;39.78;25.42;;;8.20;99.90;;;;;;5112268;28;20043;-58
2021/12/14 07:01:49;;;;;;;38.75;22.52;;;8.20;99.90;;;;;;5111869;28;20044;-58
2021/12/14 07:04:20;;;;;;;40.45;24.98;;;8.20;99.90;;;;;;5110938;28;20052;-58
2021/12/14 07:07:02;;;;;;;40.58;23.95;;;8.20;99.90;;;;;;5127685;28;20156;-58
2021/12/14 07:09:33;;;;;;;37.13;23.85;;;8.20;99.90;;;;;;5110421;28;20052;-58
2021/12/14 07:12:22;;;;;;;41.38;25.00;;;8.20;99.90;;;;;;5111952;28;20400;-59
2021/12/14 07:14:53;;;;;;;42.60;25.95;;;8.20;99.90;;;;;;5111829;28;20040;-58
2021/12/14 07:17:27;;;;;;;44.55;24.27;;;8.20;99.90;;;;;;5127977;28;20048;-58
2021/12/14 07:20:15;;;;;;;40.40;22.58;;;8.20;99.90;;;;;;5112078;28;20298;-58
2021/12/14 07:22:43;;;;;;;39.30;24.38;;;8.20;99.90;;;;;;5110615;28;20051;-59
2021/12/14 07:25:20;;;;;;;41.85;24.50;;;8.20;99.90;;;;;;5110349;28;20503;-58
2021/12/14 07:27:52;;;;;;;43.50;26.95;;;8.20;99.90;;;;;;5111632;28;20127;-58
2021/12/14 07:30:37;;;;;;;41.58;24.98;;;8.20;99.90;;;;;;5111048;28;20055;-60
2021/12/14 07:33:14;;;;;;;45.22;26.23;;;8.20;99.90;;;;;;5110268;28;20051;-59
2021/12/14 07:35:48;;;;;;;42.90;25.67;;;8.30;99.90;;;;;;5111651;28;20089;-58
2021/12/14 07:38:16;;;;;;;49.72;27.30;;;8.20;99.90;;;;;;5110588;28;20054;-57
2021/12/14 07:40:47;;;;;;;49.65;27.23;;;8.20;99.90;;;;;;5109965;28;20094;-59
2021/12/14 07:43:19;;;;;;;43.55;26.90;;;8.20;99.90;;;;;;5111730;28;20100;-58
2021/12/14 07:45:50;;;;;;;48.30;27.88;;;8.10;99.90;;;;;;5114744;28;20048;-58
2021/12/14 07:48:18;;;;;;;46.70;27.50;;;8.20;99.90;;;;;;5114568;28;20051;-58
2021/12/14 07:50:54;;;;;;;53.50;26.50;;;8.10;99.90;;;;;;5115200;28;20209;-61
2021/12/14 07:53:40;;;;;;;51.88;28.52;;;8.20;99.90;;;;;;5114229;28;20051;-59
2021/12/14 07:56:06;;;;;;;50.83;29.00;;;8.20;99.90;;;;;;5115472;28;20417;-59
2021/12/14 07:58:42;;;;;;;52.15;29.38;;;8.20;99.90;;;;;;5114820;28;20131;-62
2021/12/14 08:01:09;;;;;;;46.65;27.05;;;8.20;99.90;;;;;;5115508;28;20097;-59
2021/12/14 08:03:36;;;;;;;45.28;27.13;;;8.20;99.90;;;;;;5130697;27;20519;-59
2021/12/14 08:06:06;;;;;;;53.70;27.33;;;8.20;99.90;;;;;;5115277;28;20047;-59
2021/12/14 08:08:44;;;;;;;49.58;28.67;;;8.20;99.90;;;;;;5115178;28;20116;-59
2021/12/14 08:13:54;;;;;;;45.85;25.90;;;8.20;99.90;;;;;;5115029;27;20058;-60
2021/12/14 08:16:20;;;;;;;50.53;28.30;;;8.20;99.90;;;;;;5115164;28;20074;-59
2021/12/14 08:18:46;;;;;;;49.83;30.17;;;8.20;99.90;;;;;;5114596;28;20050;-59
2021/12/14 08:21:19;;;;;;;57.13;29.90;;;8.20;99.90;;;;;;5080141;28;20279;-60
2021/12/14 08:24:06;;;;;;;47.00;27.35;;;8.20;99.90;;;;;;5130407;27;20044;-59
2021/12/14 08:26:38;;;;;;;48.47;26.40;;;8.20;99.90;;;;;;5114572;28;20560;-58
2021/12/14 08:29:12;;;;;;;51.63;26.80;;;8.20;99.90;;;;;;5114964;28;20044;-59
2021/12/14 08:31:43;;;;;;;;;;;8.20;99.90;;;;;;5114016;28;20052;-60
2021/12/14 08:34:13;;;;;;;51.13;28.63;;;8.30;99.90;;;;;;5114961;28;19920;-58
2021/12/14 08:36:44;;;;;;;49.70;26.75;;;8.20;99.90;;;;;;5114724;28;20113;-60
2021/12/14 08:39:22;;;;;;;48.30;26.08;;;8.20;99.90;;;;;;5113694;28;20079;-58
2021/12/14 08:41:59;;;;;;;58.40;31.30;;;8.30;99.90;;;;;;5114065;28;20096;-60
2021/12/14 08:44:37;;;;;;;51.75;27.60;;;8.30;99.90;;;;;;5113559;28;20040;-59
2021/12/14 08:47:19;;;;;;;47.80;27.30;;;8.30;99.90;;;;;;5114207;28;20051;-60
2021/12/14 08:49:45;;;;;;;54.25;31.88;;;8.30;99.90;;;;;;5114240;28;20051;-59
2021/12/14 08:52:11;;;;;;;48.97;27.88;;;8.30;99.90;;;;;;5114444;28;20040;-59
2021/12/14 08:54:39;;;;;;;56.28;29.05;;;8.30;99.90;;;;;;5113479;28;20079;-59
2021/12/14 08:57:13;;;;;;;50.63;26.25;;;8.30;99.90;;;;;;5128216;27;20047;-60
2021/12/14 08:59:41;;;;;;;;;;;8.30;99.90;;;;;;5114806;28;20083;-59
2021/12/14 09:02:13;;;;;;;47.05;25.27;;;8.30;99.90;;;;;;5114368;28;19919;-59
2021/12/14 09:04:47;;;;;;;54.53;27.80;;;8.30;99.90;;;;;;5114222;28;20055;-59
2021/12/14 09:07:17;;;;;;;47.30;27.05;;;8.30;99.90;;;;;;5130160;27;20135;-59
2021/12/14 09:09:44;;;;;;;51.67;27.25;;;8.40;99.90;;;;;;5112245;28;20497;-59
2021/12/14 09:12:24;;;;;;;47.42;27.52;;;8.30;99.90;;;;;;5113557;28;20051;-59
2021/12/14 09:14:52;;;;;;;51.03;29.10;;;8.40;99.90;;;;;;5112618;28;20074;-59
2021/12/14 09:17:22;;;;;;;50.83;27.27;;;8.40;99.90;;;;;;5129783;27;20050;-59
2021/12/14 09:20:05;;;;;;;55.17;31.55;;;8.40;99.90;;;;;;5113797;28;20051;-59
2021/12/14 09:22:41;;;;;;;55.70;29.50;;;8.40;99.90;;;;;;5112527;28;20100;-59
2021/12/14 09:25:14;;;;;;;51.30;27.88;;;8.40;99.90;;;;;;5112079;28;20491;-59
2021/12/14 09:27:41;;;;;;;49.92;27.23;;;8.40;99.90;;;;;;5113536;28;20052;-59
2021/12/14 09:30:11;;;;;;;49.00;27.67;;;8.40;99.90;;;;;;5112914;28;20425;-59
2021/12/14 09:32:37;;;;;;;49.50;27.58;;;8.40;99.90;;;;;;5113445;27;20079;-59
2021/12/14 09:35:07;;;;;;;53.95;29.65;;;8.40;99.90;;;;;;5113021;28;20036;-59
2021/12/14 09:37:33;;;;;;;49.05;27.38;;;8.50;99.90;;;;;;5113093;28;20537;-59
2021/12/14 09:40:05;;;;;;;53.72;27.65;;;8.50;99.90;;;;;;5113029;28;20048;-58
2021/12/14 09:42:34;;;;;;;50.25;28.42;;;8.50;99.90;;;;;;5112345;28;20396;-59
2021/12/14 09:45:10;;;;;;;50.15;26.67;;;8.50;99.90;;;;;;5113002;28;20055;-60
2021/12/14 09:47:37;;;;;;;49.67;27.95;;;8.50;99.90;;;;;;5112242;28;20078;-59
2021/12/14 09:50:33;;;;;;;48.10;26.88;;;8.60;99.90;;;;;;5112979;28;20051;-59
2021/12/14 09:53:02;;;;;;;49.25;27.80;;;8.60;99.90;;;;;;5109146;28;20062;-59
2021/12/14 09:55:38;;;;;;;49.80;28.35;;;8.60;99.90;;;;;;5113253;28;20035;-59
2021/12/14 09:58:15;;;;;;;52.92;28.80;;;8.60;99.90;;;;;;5112788;28;20048;-59
2021/12/14 10:00:51;;;;;;;50.00;29.05;;;8.60;99.90;;;;;;5113172;28;20085;-59
2021/12/14 10:03:17;;;;;;;56.00;30.35;;;8.60;99.90;;;;;;5111820;28;20043;-59
2021/12/14 10:05:52;;;;;;;51.40;26.67;;;8.60;99.90;;;;;;5112655;27;20492;-59
2021/12/14 10:08:23;;;;;;;50.92;28.08;;;8.60;99.90;;;;;;5112430;28;20101;-59
2021/12/14 10:11:00;;;;;;;47.03;25.98;;;8.60;99.90;;;;;;5112512;28;20133;-59
2021/12/14 10:13:27;;;;;;;40.22;23.98;;;8.60;99.90;;;;;;5113030;28;20108;-59
2021/12/14 10:15:56;;;;;;;46.00;27.13;;;8.60;99.90;;;;;;5111557;28;20055;-58
2021/12/14 10:18:32;;;;;;;52.72;29.38;;;8.60;99.90;;;;;;5111547;28;20546;-59
2021/12/14 10:21:04;;;;;;;45.45;26.02;;;8.60;99.90;;;;;;5112321;28;20050;-59
2021/12/14 10:23:31;;;;;;;54.22;28.73;;;8.70;99.90;;;;;;5111394;28;20111;-59
2021/12/14 10:25:59;;;;;;;48.22;27.20;;;8.60;99.90;;;;;;5112279;28;20046;-58
2021/12/14 10:28:27;;;;;;;47.00;27.80;;;8.60;99.90;;;;;;5111179;28;20047;-58
2021/12/14 10:31:00;;;;;;;48.60;24.73;;;8.60;99.90;;;;;;5112183;27;20185;-61
2021/12/14 10:33:28;;;;;;;46.63;26.52;;;8.60;99.90;;;;;;5112659;28;20059;-57
2021/12/14 10:36:00;;;;;;;53.03;28.40;;;8.60;99.90;;;;;;5112250;28;20051;-58
2021/12/14 10:38:40;;;;;;;47.60;26.88;;;8.60;99.90;;;;;;5112568;28;20059;-58
2021/12/14 10:43:59;;;;;;;45.00;27.50;;;8.70;99.90;;;;;;5112226;28;20052;-58
2021/12/14 10:46:40;;;;;;;45.72;26.02;;;8.60;99.90;;;;;;5112108;28;20500;-57
2021/12/14 10:49:09;;;;;;;47.47;27.77;;;8.60;99.90;;;;;;5110994;28;20054;-59
2021/12/14 10:51:38;;;;;;;43.80;26.25;;;8.60;99.90;;;;;;5112316;28;20040;-57
2021/12/14 10:54:07;;;;;;;45.90;24.50;;;8.70;99.90;;;;;;5110966;28;20048;-59
2021/12/14 10:57:07;;;;;;;45.20;26.35;;;8.70;99.90;;;;;;5111402;28;20134;-59
2021/12/14 10:59:37;;;;;;;43.13;24.75;;;8.70;99.90;;;;;;5078519;28;20066;-60
2021/12/14 11:02:04;;;;;;;46.58;26.35;;;8.70;99.90;;;;;;5111826;28;20139;-57
2021/12/14 11:04:40;;;;;;;45.20;24.27;;;8.70;99.90;;;;;;5112146;28;20051;-57
2021/12/14 11:07:24;;;;;;;46.45;26.55;;;8.70;99.90;;;;;;5127932;28;20083;-56
2021/12/14 11:09:55;;;;;;;45.28;26.42;;;8.70;99.90;;;;;;5111664;28;20085;-58
2021/12/14 11:12:29;;;;;;;48.75;25.98;;;8.80;99.90;;;;;;5111766;28;20051;-58
2021/12/14 11:15:26;;;;;;;45.47;24.50;;;8.70;99.90;;;;;;5111227;28;20055;-56
2021/12/14 11:18:11;;;;;;;44.38;22.95;;;8.70;99.90;;;;;;5109051;28;20052;-58
2021/12/14 11:20:55;;;;;;;45.88;25.58;;;8.70;99.90;;;;;;5114217;28;20151;-58
2021/12/14 11:23:28;;;;;;;47.40;27.08;;;8.80;99.90;;;;;;5116070;28;20095;-58
2021/12/14 11:26:00;;;;;;;43.00;23.75;;;8.70;99.90;;;;;;5115021;28;20043;-58
2021/12/14 11:28:40;;;;;;;43.55;24.33;;;8.80;99.90;;;;;;5114956;28;20042;-58
2021/12/14 11:31:44;;;;;;;43.92;25.02;;;8.80;99.90;;;;;;5115528;28;20377;-59
2021/12/14 11:34:30;;;;;;;41.22;22.55;;;8.80;99.90;;;;;;5115387;28;20083;-59
2021/12/14 11:37:03;;;;;;;41.60;23.75;;;8.80;99.90;;;;;;5097791;28;20518;-58
2021/12/14 11:39:36;;;;;;;40.00;23.92;;;8.80;99.90;;;;;;5114959;28;20055;-59
2021/12/14 11:42:07;;;;;;;40.05;23.23;;;8.90;99.90;;;;;;5115390;28;20043;-61
2021/12/14 11:44:32;;;;;;;39.15;21.13;;;8.90;99.90;;;;;;5115850;28;20104;-59
2021/12/14 11:49:55;;;;;;;40.53;22.23;;;8.90;99.90;;;;;;5115829;28;20055;-59
2021/12/14 11:52:56;;;;;;;38.88;20.50;;;8.90;99.90;;;;;;5115061;28;20108;-59
2021/12/14 11:55:31;;;;;;;37.50;18.48;;;8.90;99.90;;;;;;5114070;28;20043;-59
2021/12/14 11:58:18;;;;;;;41.85;21.45;;;8.90;99.90;;;;;;5115626;28;20097;-59
2021/12/14 12:01:08;;;;;;;36.15;18.58;;;8.90;99.90;;;;;;5114634;28;20039;-58
2021/12/14 12:03:44;;;;;;;36.72;20.20;;;8.90;99.90;;;;;;5114512;28;20122;-58
2021/12/14 12:09:29;;;;;;;41.53;21.48;;;8.90;99.90;;;;;;5113138;28;20511;-59
2021/12/14 12:12:04;;;;;;;40.97;21.40;;;8.90;99.90;;;;;;5114428;28;20054;-58
2021/12/14 12:14:55;;;;;;;34.53;20.73;;;8.90;99.90;;;;;;5113990;28;20055;-58
2021/12/14 12:17:44;;;;;;;33.45;19.90;;;8.90;99.90;;;;;;5106365;28;20048;-58
2021/12/14 12:20:34;;;;;;;31.40;18.42;;;8.90;99.90;;;;;;5114846;28;20138;-58
2021/12/14 12:23:21;;;;;;;35.33;18.77;;;8.90;99.90;;;;;;5115192;28;20052;-59
2021/12/14 12:26:01;;;;;;;36.38;18.08;;;8.90;99.90;;;;;;5114829;28;20096;-59
2021/12/14 12:28:32;;;;;;;32.78;18.30;;;9.00;99.90;;;;;;5114512;28;20504;-59
2021/12/14 12:31:11;;;;;;;30.80;17.70;;;9.00;99.90;;;;;;5114827;28;20043;-58
2021/12/14 12:33:43;;;;;;;37.17;17.10;;;9.00;99.90;;;;;;5114856;28;20054;-58
2021/12/14 12:36:16;;;;;;;33.20;18.02;;;9.00;99.90;;;;;;5113740;28;20044;-59
2021/12/14 12:38:44;;;;;;;30.80;16.83;;;9.10;99.90;;;;;;5114860;28;20051;-59
2021/12/14 12:41:45;;;;;;;28.70;16.40;;;9.00;99.90;;;;;;5113198;28;20054;-62
2021/12/14 12:44:24;;;;;;;26.95;16.08;;;9.00;99.90;;;;;;5114470;28;20118;-59
2021/12/14 12:46:58;;;;;;;27.00;16.10;;;9.10;99.90;;;;;;5114667;28;20137;-58
2021/12/14 12:49:30;;;;;;;24.25;15.07;;;9.10;99.90;;;;;;5112958;28;20412;-59
2021/12/14 12:52:02;;;;;;;28.73;15.93;;;9.10;99.90;;;;;;5114661;28;20160;-60
2021/12/14 12:54:28;;;;;;;25.90;14.45;;;9.10;99.90;;;;;;5113991;27;20070;-60
2021/12/14 12:57:13;;;;;;;22.05;13.68;;;9.10;99.90;;;;;;5113171;28;20134;-61
2021/12/14 12:59:47;;;;;;;;;;;9.10;99.90;;;;;;5114886;28;20143;-59
2021/12/14 13:02:20;;;;;;;25.03;13.03;;;9.10;99.90;;;;;;5113073;28;19980;-60
2021/12/14 13:04:50;;;;;;;21.83;12.38;;;9.10;99.90;;;;;;5113162;28;20064;-60
2021/12/14 13:07:17;;;;;;;20.98;11.57;;;9.10;99.90;;;;;;5113864;28;20055;-59
2021/12/14 13:10:07;;;;;;;22.58;11.52;;;9.10;99.90;;;;;;5112763;28;20069;-59
2021/12/14 13:12:54;;;;;;;21.25;12.23;;;9.20;99.90;;;;;;5113509;28;20094;-60
2021/12/14 13:15:28;;;;;;;20.00;10.90;;;9.20;99.90;;;;;;5113894;28;20044;-60
2021/12/14 13:18:31;;;;;;;22.13;11.73;;;9.20;99.90;;;;;;5112903;28;20392;-59
2021/12/14 13:21:04;;;;;;;20.52;11.95;;;9.20;99.90;;;;;;5113866;28;20039;-59
2021/12/14 13:23:51;;;;;;;21.93;12.33;;;9.20;99.90;;;;;;5113633;28;20059;-60
2021/12/14 13:26:25;;;;;;;21.17;12.10;;;9.20;99.90;;;;;;5113395;28;20043;-60
2021/12/14 13:28:52;;;;;;;;;;;9.20;99.90;;;;;;5114414;28;20058;-60
2021/12/14 13:31:39;;;;;;;17.75;10.48;;;9.20;99.90;;;;;;5113397;28;20297;-60
2021/12/14 13:34:10;;;;;;;18.90;10.95;;;9.30;99.90;;;;;;5113739;28;20039;-59
2021/12/14 13:36:36;;;;;;;19.40;10.55;;;9.20;99.90;;;;;;5112347;28;20051;-61
2021/12/14 13:39:05;;;;;;;22.00;11.02;;;9.30;99.90;;;;;;5113703;28;20393;-60
2021/12/14 13:41:49;;;;;;;19.88;11.40;;;9.30;99.90;;;;;;5112175;28;20082;-60
2021/12/14 13:44:15;;;;;;;19.55;11.13;;;9.30;99.90;;;;;;5113824;28;20169;-60
2021/12/14 13:46:43;;;;;;;18.88;11.07;;;9.30;99.90;;;;;;5113637;28;20050;-60
2021/12/14 13:49:09;;;;;;;20.65;11.75;;;9.30;99.90;;;;;;5113506;28;20040;-59
2021/12/14 13:51:35;;;;;;;20.65;10.98;;;9.30;99.90;;;;;;5128910;27;20043;-59
2021/12/14 13:54:02;;;;;;;19.00;11.60;;;9.30;99.90;;;;;;5111941;28;20055;-59
2021/12/14 13:56:32;;;;;;;22.52;11.48;;;9.40;99.90;;;;;;5112794;28;20039;-60
2021/12/14 13:58:59;;;;;;;17.48;10.77;;;9.30;99.90;;;;;;5113187;28;20054;-60
2021/12/14 14:01:41;;;;;;;18.45;10.65;;;9.30;99.90;;;;;;5128700;27;20140;-59
2021/12/14 14:04:09;;;;;;;19.33;12.38;;;9.30;99.90;;;;;;5128848;27;20047;-61